Time;durP1;ratioP1;P1;durP2;ratioP2;P2;SDS_P1;SDS_P2;PMS_P1;PMS_P2;Temp;Humidity;BMP_temperature;BMP_pressure;BME280_temperature;BME280_humidity;BME280_pressure;Samples;Min_cycle;Max_cycle;Signal;HPM_P1;HPM_P2
2023/05/25 00:01:19;;;;;;;15.30;7.43;;;;;;;9.92;100.00;102392.44;5268303;28;20035;-65
2023/05/25 00:03:51;;;;;;;13.63;6.28;;;;;;;9.91;100.00;102395.19;5270088;28;20525;-65
2023/05/25 00:06:24;;;;;;;18.33;7.07;;;;;;;9.89;100.00;102389.06;5267048;28;20804;-65
2023/05/25 00:08:56;;;;;;;16.52;7.53;;;;;;;9.94;100.00;102387.03;5264576;28;20086;-65
2023/05/25 00:11:27;;;;;;;16.23;7.05;;;;;;;9.86;100.00;102390.09;5266103;28;20028;-66
2023/05/25 00:13:59;;;;;;;15.88;7.13;;;;;;;9.89;100.00;102387.25;5267128;28;20020;-65
2023/05/25 00:16:30;;;;;;;16.92;6.65;;;;;;;9.80;100.00;102393.06;5268132;28;20029;-65
2023/05/25 00:19:04;;;;;;;18.25;7.28;;;;;;;9.81;100.00;102386.78;5266376;28;20032;-65
2023/05/25 00:21:39;;;;;;;20.02;6.80;;;;;;;9.78;100.00;102386.94;5267191;28;20493;-65
2023/05/25 00:24:10;;;;;;;18.15;7.35;;;;;;;9.73;100.00;102392.47;5265882;28;20035;-65
2023/05/25 00:26:41;;;;;;;17.55;7.15;;;;;;;9.72;100.00;102395.22;5263276;28;20033;-66
2023/05/25 00:29:13;;;;;;;18.77;6.55;;;;;;;9.74;100.00;102396.00;5263765;28;20835;-65
2023/05/25 00:31:45;;;;;;;12.50;6.30;;;;;;;9.69;100.00;102396.22;5269271;28;20036;-66
2023/05/25 00:34:16;;;;;;;17.48;6.50;;;;;;;9.67;100.00;102391.91;5263580;28;20146;-66
2023/05/25 00:36:48;;;;;;;12.77;7.15;;;;;;;9.69;100.00;102388.22;5260300;28;20111;-66
2023/05/25 00:39:20;;;;;;;17.40;6.15;;;;;;;9.67;100.00;102394.59;5263996;28;20105;-65
2023/05/25 00:41:53;;;;;;;15.90;6.40;;;;;;;9.65;100.00;102393.78;5260464;28;20039;-65
2023/05/25 00:44:24;;;;;;;15.57;6.70;;;;;;;9.74;100.00;102398.66;5261556;28;20427;-66
2023/05/25 00:46:56;;;;;;;15.73;6.07;;;;;;;9.66;100.00;102404.34;5260816;28;20134;-66
2023/05/25 00:49:32;;;;;;;18.20;7.07;;;;;;;9.62;100.00;102394.78;5261437;28;20047;-65
2023/05/25 00:52:04;;;;;;;11.88;5.85;;;;;;;9.59;100.00;102390.47;5262818;28;20071;-65
2023/05/25 00:54:36;;;;;;;15.18;5.88;;;;;;;9.69;100.00;102393.56;5259226;28;20111;-65
2023/05/25 00:57:09;;;;;;;13.10;6.32;;;;;;;9.61;100.00;102404.59;5263904;28;20035;-66
2023/05/25 00:59:45;;;;;;;13.95;6.32;;;;;;;9.56;100.00;102398.59;5263318;28;20110;-65
2023/05/25 01:02:18;;;;;;;16.58;6.22;;;;;;;9.59;100.00;102402.94;5265028;28;20042;-65
2023/05/25 01:04:52;;;;;;;13.77;5.90;;;;;;;9.50;100.00;102401.56;5270348;28;20062;-65
2023/05/25 01:07:25;;;;;;;15.80;7.15;;;;;;;9.53;100.00;102406.75;5271312;28;20032;-65
2023/05/25 01:10:00;;;;;;;15.52;6.32;;;;;;;9.46;100.00;102407.97;5274773;28;20036;-65
2023/05/25 01:12:36;;;;;;;11.30;5.35;;;;;;;9.50;100.00;102406.91;5277613;28;20433;-65
2023/05/25 01:15:08;;;;;;;13.55;5.93;;;;;;;9.46;100.00;102407.97;5274160;28;20804;-66
2023/05/25 01:17:41;;;;;;;19.23;6.50;;;;;;;9.42;100.00;102404.59;5272704;28;20033;-65
2023/05/25 01:20:12;;;;;;;13.25;5.50;;;;;;;9.42;100.00;102401.91;5273827;28;20039;-65
2023/05/25 01:22:52;;;;;;;14.20;6.22;;;;;;;9.38;100.00;102400.34;5275041;28;20432;-65
2023/05/25 01:25:30;;;;;;;11.70;5.35;;;;;;;9.34;100.00;102400.53;5271823;28;20035;-65
2023/05/25 01:28:16;;;;;;;16.17;5.88;;;;;;;9.35;100.00;102410.28;5274478;28;20045;-66
2023/05/25 01:30:49;;;;;;;12.52;5.75;;;;;;;9.31;100.00;102414.00;5267438;28;20398;-65
2023/05/25 01:33:21;;;;;;;12.45;5.80;;;;;;;9.30;100.00;102415.81;5274782;28;20025;-65
2023/05/25 01:35:53;;;;;;;14.20;6.35;;;;;;;9.27;100.00;102421.28;5276316;28;21074;-65
2023/05/25 01:38:25;;;;;;;15.38;5.80;;;;;;;9.28;100.00;102420.34;5263219;28;20110;-65
2023/05/25 01:40:56;;;;;;;13.80;6.18;;;;;;;9.23;100.00;102423.22;5266876;28;20017;-65
2023/05/25 01:43:27;;;;;;;13.25;5.65;;;;;;;9.21;100.00;102419.75;5275832;28;20154;-65
2023/05/25 01:46:10;;;;;;;14.35;5.53;;;;;;;9.19;100.00;102426.94;5271536;28;20032;-66
2023/05/25 01:48:53;;;;;;;14.23;5.75;;;;;;;9.16;100.00;102424.41;5278576;28;20399;-66
2023/05/25 01:51:35;;;;;;;13.45;6.00;;;;;;;9.23;100.00;102427.69;5267536;28;20071;-65
2023/05/25 01:54:18;;;;;;;15.10;6.07;;;;;;;9.18;100.00;102427.88;5268883;28;20043;-66
2023/05/25 01:56:51;;;;;;;12.02;6.45;;;;;;;9.31;100.00;102430.00;5266539;28;20028;-66
2023/05/25 01:59:25;;;;;;;10.90;5.55;;;;;;;9.16;100.00;102436.88;5269441;28;20041;-66
2023/05/25 02:01:58;;;;;;;15.05;6.63;;;;;;;9.16;100.00;102435.06;5267652;28;20124;-66
2023/05/25 02:04:30;;;;;;;13.53;6.40;;;;;;;9.16;100.00;102437.72;5271629;28;21588;-66
2023/05/25 02:07:05;;;;;;;14.93;6.22;;;;;;;9.18;100.00;102429.69;5273372;28;20021;-66
2023/05/25 02:09:36;;;;;;;11.55;6.10;;;;;;;9.23;100.00;102431.19;5269472;28;20413;-66
2023/05/25 02:12:08;;;;;;;13.77;5.90;;;;;;;9.13;100.00;102437.88;5268758;28;20040;-66
2023/05/25 02:14:39;;;;;;;16.50;6.38;;;;;;;9.06;100.00;102431.09;5272895;28;20496;-66
2023/05/25 02:17:11;;;;;;;16.02;6.53;;;;;;;9.06;100.00;102431.09;5275832;28;20595;-66
2023/05/25 02:19:43;;;;;;;17.15;6.72;;;;;;;9.02;100.00;102425.03;5266101;28;20497;-66
2023/05/25 02:22:15;;;;;;;13.75;6.18;;;;;;;9.01;100.00;102426.00;5271141;28;20613;-66
2023/05/25 02:24:47;;;;;;;14.90;6.57;;;;;;;9.10;100.00;102426.50;5266009;28;20075;-66
2023/05/25 02:27:18;;;;;;;13.35;7.13;;;;;;;9.00;100.00;102421.59;5264415;28;20674;-66
2023/05/25 02:29:52;;;;;;;13.73;6.97;;;;;;;9.03;100.00;102428.56;5266771;28;20028;-66
2023/05/25 02:32:23;;;;;;;16.02;7.03;;;;;;;8.92;100.00;102431.72;5258137;28;20042;-67
2023/05/25 02:34:54;;;;;;;14.65;6.70;;;;;;;8.94;100.00;102431.66;5270333;28;20017;-66
2023/05/25 02:37:26;;;;;;;13.23;6.60;;;;;;;8.87;100.00;102427.53;5266990;28;20036;-66
2023/05/25 02:39:58;;;;;;;14.38;6.47;;;;;;;8.93;100.00;102429.91;5262829;28;20032;-67
2023/05/25 02:42:29;;;;;;;12.95;5.95;;;;;;;8.83;100.00;102432.13;5271515;28;20113;-66
2023/05/25 02:45:00;;;;;;;13.70;6.47;;;;;;;8.79;100.00;102428.72;5259806;28;20077;-66
2023/05/25 02:47:32;;;;;;;13.57;6.80;;;;;;;8.78;100.00;102437.66;5272289;28;20135;-66
2023/05/25 02:50:04;;;;;;;14.85;6.47;;;;;;;8.70;100.00;102429.13;5263032;28;21621;-66
2023/05/25 02:52:35;;;;;;;15.50;6.95;;;;;;;8.71;100.00;102436.19;5271865;28;20415;-66
2023/05/25 02:55:09;;;;;;;14.10;7.65;;;;;;;8.61;100.00;102430.41;5267153;28;20108;-66
2023/05/25 02:57:40;;;;;;;15.93;7.20;;;;;;;8.69;100.00;102432.72;5264267;28;20036;-67
2023/05/25 03:00:12;;;;;;;15.10;7.43;;;;;;;8.60;100.00;102430.44;5266179;28;20490;-66
2023/05/25 03:02:45;;;;;;;14.27;8.45;;;;;;;8.60;100.00;102427.78;5267795;28;20514;-66
2023/05/25 03:05:17;;;;;;;15.57;8.88;;;;;;;8.62;100.00;102424.13;5266075;28;20044;-66
2023/05/25 03:07:48;;;;;;;16.75;9.65;;;;;;;8.69;100.00;102426.53;5265821;28;20045;-66
2023/05/25 03:10:19;;;;;;;19.63;9.50;;;;;;;8.60;100.00;102427.78;5264241;28;20521;-66
2023/05/25 03:12:51;;;;;;;17.17;9.80;;;;;;;8.64;100.00;102435.56;5263793;28;20240;-66
2023/05/25 03:15:22;;;;;;;14.70;9.27;;;;;;;8.66;100.00;102435.50;5266055;28;20020;-66
2023/05/25 03:17:55;;;;;;;19.20;10.23;;;;;;;8.65;100.00;102449.75;5261034;28;20032;-66
2023/05/25 03:20:27;;;;;;;22.55;10.23;;;;;;;8.58;100.00;102448.28;5264144;28;20441;-66
2023/05/25 03:22:58;;;;;;;18.05;10.27;;;;;;;8.64;100.00;102445.34;5261747;28;20056;-66
2023/05/25 03:25:30;;;;;;;21.52;10.95;;;;;;;8.55;100.00;102449.28;5263156;28;20090;-66
2023/05/25 03:28:01;;;;;;;17.90;10.50;;;;;;;8.50;100.00;102448.59;5267822;28;20690;-66
2023/05/25 03:30:33;;;;;;;16.55;10.95;;;;;;;8.52;100.00;102449.41;5267107;28;20493;-66
2023/05/25 03:33:04;;;;;;;19.33;9.95;;;;;;;8.44;100.00;102455.03;5267097;28;20040;-66
2023/05/25 03:35:35;;;;;;;20.45;10.65;;;;;;;8.42;100.00;102467.53;5270593;28;20031;-66
2023/05/25 03:38:07;;;;;;;18.50;9.75;;;;;;;8.42;100.00;102461.38;5264299;28;20040;-66
2023/05/25 03:40:38;;;;;;;16.33;10.55;;;;;;;8.37;100.00;102458.84;5272894;28;20028;-66
2023/05/25 03:43:10;;;;;;;21.55;11.63;;;;;;;8.39;100.00;102464.09;5264175;28;20047;-66
2023/05/25 03:45:41;;;;;;;19.33;10.85;;;;;;;8.37;100.00;102472.13;5266391;28;20737;-66
2023/05/25 03:48:12;;;;;;;18.00;11.35;;;;;;;8.33;100.00;102472.34;5270182;28;20476;-66
2023/05/25 03:50:44;;;;;;;17.65;11.02;;;;;;;8.34;100.00;102474.06;5264200;28;20056;-66
2023/05/25 03:53:15;;;;;;;19.70;11.93;;;;;;;8.32;100.00;102475.91;5268544;28;20039;-66
2023/05/25 03:55:50;;;;;;;21.35;13.18;;;;;;;8.30;100.00;102483.94;5271533;28;20024;-66
2023/05/25 03:58:22;;;;;;;18.40;12.20;;;;;;;8.33;100.00;102483.84;5268902;28;20112;-66
2023/05/25 04:00:55;;;;;;;19.05;12.20;;;;;;;8.31;100.00;102484.84;5270988;28;20127;-66
2023/05/25 04:03:26;;;;;;;18.98;11.98;;;;;;;8.29;100.00;102487.56;5265331;28;20122;-66
2023/05/25 04:05:59;;;;;;;19.92;11.77;;;;;;;8.30;100.00;102485.75;5267017;28;20048;-66
2023/05/25 04:08:30;;;;;;;18.45;11.32;;;;;;;8.27;100.00;102492.06;5274755;28;20461;-66
2023/05/25 04:11:02;;;;;;;17.77;11.38;;;;;;;8.26;100.00;102492.97;5268689;28;20032;-66
2023/05/25 04:13:35;;;;;;;19.25;12.52;;;;;;;8.32;100.00;102489.22;5271020;28;20093;-66
2023/05/25 04:16:06;;;;;;;19.30;12.70;;;;;;;8.38;100.00;102492.50;5268955;28;20031;-66
2023/05/25 04:18:37;;;;;;;20.23;11.90;;;;;;;8.29;100.00;102492.00;5269408;28;20059;-66
2023/05/25 04:21:09;;;;;;;17.90;11.32;;;;;;;8.43;100.00;102492.34;5266072;28;20431;-66
2023/05/25 04:23:41;;;;;;;23.05;12.45;;;;;;;8.32;100.00;102487.44;5273009;28;20122;-66
2023/05/25 04:26:15;;;;;;;19.67;12.55;;;;;;;8.52;100.00;102496.44;5266632;28;20040;-66
2023/05/25 04:28:47;;;;;;;19.40;10.88;;;;;;;8.39;100.00;102488.03;5279252;28;20423;-66
2023/05/25 04:31:18;;;;;;;21.02;10.88;;;;;;;8.43;100.00;102498.50;5269758;28;20109;-66
2023/05/25 04:33:49;;;;;;;18.95;10.07;;;;;;;8.43;100.00;102492.34;5270298;28;20067;-67
2023/05/25 04:36:21;;;;;;;17.75;10.80;;;;;;;8.55;100.00;102498.94;5271956;28;20029;-66
2023/05/25 04:38:53;;;;;;;18.77;11.18;;;;;;;8.54;100.00;102502.56;5271550;28;20029;-66
2023/05/25 04:41:24;;;;;;;17.98;10.25;;;;;;;8.52;100.00;102501.75;5272525;28;20060;-66
2023/05/25 04:43:56;;;;;;;17.08;10.40;;;;;;;8.49;100.00;102494.72;5276704;28;20099;-67
2023/05/25 04:46:28;;;;;;;22.88;10.93;;;;;;;8.54;100.00;102502.56;5270409;28;20032;-66
2023/05/25 04:48:59;;;;;;;17.38;10.18;;;;;;;8.56;100.00;102500.69;5270141;28;20129;-66
2023/05/25 04:51:31;;;;;;;13.55;9.90;;;;;;;8.56;100.00;102496.22;5271697;28;20704;-66
2023/05/25 04:54:02;;;;;;;20.90;10.13;;;;;;;8.56;100.00;102500.69;5273081;28;20492;-66
2023/05/25 04:56:34;;;;;;;15.93;10.00;;;;;;;8.60;100.00;102500.47;5268846;28;20023;-66
2023/05/25 04:59:06;;;;;;;17.60;10.02;;;;;;;8.66;100.00;102501.16;5275915;28;20024;-66
2023/05/25 05:01:39;;;;;;;15.35;9.98;;;;;;;8.64;100.00;102503.88;5278157;28;20016;-66
2023/05/25 05:04:10;;;;;;;19.40;10.15;;;;;;;8.69;100.00;102509.88;5268823;28;20058;-66
2023/05/25 05:06:42;;;;;;;22.58;10.93;;;;;;;8.74;100.00;102515.00;5275803;28;20064;-66
2023/05/25 05:09:13;;;;;;;17.27;9.75;;;;;;;8.76;100.00;102516.69;5273994;28;20033;-66
2023/05/25 05:11:45;;;;;;;20.73;9.88;;;;;;;8.82;100.00;102518.19;5268961;28;20431;-66
2023/05/25 05:14:16;;;;;;;18.55;10.23;;;;;;;8.92;100.00;102518.72;5272449;28;20501;-65
2023/05/25 05:16:47;;;;;;;19.67;9.43;;;;;;;8.95;100.00;102521.22;5270564;28;20032;-66
2023/05/25 05:19:19;;;;;;;17.23;9.38;;;;;;;8.97;100.00;102511.38;5275470;28;20036;-66
2023/05/25 05:21:51;;;;;;;18.00;9.05;;;;;;;8.98;100.00;102516.63;5269909;28;20029;-66
2023/05/25 05:24:22;;;;;;;14.80;9.07;;;;;;;9.04;100.00;102518.16;5277780;28;20032;-66
2023/05/25 05:26:53;;;;;;;19.20;9.27;;;;;;;9.14;100.00;102521.28;5273113;28;20090;-66
2023/05/25 05:29:26;;;;;;;17.60;8.52;;;;;;;9.16;100.00;102528.28;5272684;28;20037;-66
2023/05/25 05:31:58;;;;;;;15.10;8.50;;;;;;;9.20;100.00;102529.00;5275766;28;20028;-66
2023/05/25 05:34:30;;;;;;;17.77;9.25;;;;;;;9.25;100.00;102532.34;5270833;28;20028;-66
2023/05/25 05:37:01;;;;;;;14.45;8.23;;;;;;;9.32;100.00;102541.81;5274221;28;20098;-66
2023/05/25 05:39:33;;;;;;;18.95;8.93;;;;;;;9.38;100.00;102535.34;5275539;28;20052;-66
2023/05/25 05:42:04;;;;;;;18.95;8.20;;;;;;;9.45;100.00;102542.09;5268097;28;20054;-67
2023/05/25 05:44:35;;;;;;;17.02;7.93;;;;;;;9.45;100.00;102541.25;5282699;28;20456;-66
2023/05/25 05:47:07;;;;;;;18.27;8.85;;;;;;;9.49;100.00;102545.50;5275770;28;20029;-66
2023/05/25 05:49:38;;;;;;;13.30;7.45;;;;;;;9.53;100.00;102545.31;5276506;28;20042;-66
2023/05/25 05:52:10;;;;;;;18.27;7.45;;;;;;;9.64;100.00;102557.28;5272194;28;20123;-66
2023/05/25 05:54:41;;;;;;;12.52;7.45;;;;;;;9.73;100.00;102554.22;5264983;28;20054;-66
2023/05/25 05:57:12;;;;;;;15.30;7.38;;;;;;;9.79;100.00;102564.59;5270036;28;20029;-66
2023/05/25 05:59:44;;;;;;;16.65;6.82;;;;;;;9.85;100.00;102564.31;5275399;28;20559;-66
2023/05/25 06:02:15;;;;;;;16.00;7.22;;;;;;;9.87;100.00;102561.56;5278240;28;20119;-65
2023/05/25 06:04:47;;;;;;;15.48;6.85;;;;;;;9.89;100.00;102567.69;5270247;28;20668;-66
2023/05/25 06:07:19;;;;;;;13.07;6.55;;;;;;;10.01;100.00;102565.34;5274315;28;20123;-65
2023/05/25 06:09:51;;;;;;;14.50;7.05;;;;;;;10.01;100.00;102573.34;5267178;28;20025;-66
2023/05/25 06:12:22;;;;;;;13.57;7.47;;;;;;;10.09;100.00;102575.66;5272945;28;20228;-66
2023/05/25 06:14:53;;;;;;;15.65;6.38;;;;;;;10.13;100.00;102573.69;5266731;28;20028;-67
2023/05/25 06:17:26;;;;;;;18.10;8.00;;;;;;;10.20;100.00;102570.66;5268714;28;20036;-66
2023/05/25 06:19:58;;;;;;;16.65;7.78;;;;;;;10.23;100.00;102585.66;5270502;28;20028;-66
2023/05/25 06:22:29;;;;;;;15.68;7.03;;;;;;;10.37;100.00;102577.91;5269978;28;20055;-66
2023/05/25 06:25:00;;;;;;;15.50;7.22;;;;;;;10.40;100.00;102572.41;5267710;28;20043;-66
2023/05/25 06:27:32;;;;;;;14.05;6.53;;;;;;;10.49;100.00;102576.44;5271940;28;20456;-66
2023/05/25 06:30:04;;;;;;;13.38;6.53;;;;;;;10.55;100.00;102581.50;5272064;28;20162;-65
2023/05/25 06:32:35;;;;;;;14.70;6.63;;;;;;;10.63;100.00;102585.59;5266186;28;20906;-66
2023/05/25 06:35:08;;;;;;;12.18;6.55;;;;;;;10.68;100.00;102591.56;5268323;28;20024;-66
2023/05/25 06:37:40;;;;;;;14.27;7.20;;;;;;;10.79;100.00;102598.09;5265763;28;20596;-66
2023/05/25 06:40:11;;;;;;;13.82;6.78;;;;;;;10.78;100.00;102593.72;5267491;28;20136;-65
2023/05/25 06:42:43;;;;;;;15.27;8.13;;;;;;;10.91;100.00;102595.75;5267565;28;20036;-66
2023/05/25 06:45:15;;;;;;;12.45;6.88;;;;;;;10.97;100.00;102591.00;5270399;28;20466;-66
2023/05/25 06:47:46;;;;;;;13.75;6.85;;;;;;;11.00;100.00;102597.97;5265127;28;20833;-66
2023/05/25 06:50:18;;;;;;;14.00;5.97;;;;;;;11.15;100.00;102593.66;5259870;28;20085;-65
2023/05/25 06:52:50;;;;;;;10.70;5.95;;;;;;;11.25;100.00;102596.72;5262667;28;20094;-66
2023/05/25 06:55:21;;;;;;;13.38;6.75;;;;;;;11.41;100.00;102603.03;5263824;28;20016;-66
2023/05/25 06:57:52;;;;;;;12.48;6.10;;;;;;;11.65;100.00;102594.66;5267835;28;20484;-66
2023/05/25 07:00:24;;;;;;;13.35;5.63;;;;;;;11.74;100.00;102597.72;5268554;28;20032;-66
2023/05/25 07:02:55;;;;;;;14.07;5.78;;;;;;;11.81;100.00;102597.38;5270760;28;20060;-65
2023/05/25 07:05:27;;;;;;;12.30;6.00;;;;;;;11.90;100.00;102597.78;5271514;28;20035;-66
2023/05/25 07:07:58;;;;;;;12.00;5.70;;;;;;;12.00;100.00;102602.63;5270159;28;20040;-66
2023/05/25 07:10:29;;;;;;;12.85;6.13;;;;;;;12.01;100.00;102601.69;5268658;28;20028;-66
2023/05/25 07:13:01;;;;;;;9.80;5.93;;;;;;;12.02;100.00;102606.09;5266312;28;20260;-66
2023/05/25 07:15:32;;;;;;;11.43;6.38;;;;;;;12.10;100.00;102606.50;5263329;28;20502;-66
2023/05/25 07:18:04;;;;;;;12.98;6.15;;;;;;;12.19;100.00;102605.16;5270975;28;20024;-66
2023/05/25 07:20:38;;;;;;;11.60;6.15;;;;;;;12.30;100.00;102610.78;5271961;28;20020;-66
2023/05/25 07:23:10;;;;;;;11.52;6.13;;;;;;;12.31;100.00;102604.47;5265439;28;20167;-66
2023/05/25 07:25:41;;;;;;;15.65;6.07;;;;;;;12.38;100.00;102611.22;5270950;28;20089;-66
2023/05/25 07:28:13;;;;;;;11.40;6.20;;;;;;;12.49;100.00;102614.16;5273169;28;20032;-66
2023/05/25 07:30:44;;;;;;;9.60;6.57;;;;;;;12.58;100.00;102618.16;5271642;28;20028;-66
2023/05/25 07:33:15;;;;;;;12.48;5.97;;;;;;;12.69;100.00;102621.06;5272252;28;20020;-66
2023/05/25 07:35:47;;;;;;;13.27;6.53;;;;;;;12.87;100.00;102610.25;5267443;28;20046;-66
2023/05/25 07:38:18;;;;;;;12.05;6.40;;;;;;;12.96;100.00;102617.72;5272675;28;20032;-66
2023/05/25 07:40:51;;;;;;;11.88;6.68;;;;;;;12.95;100.00;102605.31;5268865;28;20642;-66
2023/05/25 07:43:22;;;;;;;11.93;6.18;;;;;;;13.06;100.00;102612.69;5270555;28;20039;-66
2023/05/25 07:45:54;;;;;;;11.85;6.22;;;;;;;13.19;100.00;102608.34;5268215;28;20028;-66
2023/05/25 07:48:25;;;;;;;9.48;5.70;;;;;;;13.13;100.00;102617.63;5272641;28;20025;-65
2023/05/25 07:50:56;;;;;;;9.57;5.70;;;;;;;13.17;100.00;102607.56;5267711;28;20503;-66
2023/05/25 07:53:28;;;;;;;14.27;5.60;;;;;;;13.23;100.00;102612.59;5265394;28;20033;-66
2023/05/25 07:55:59;;;;;;;13.77;5.90;;;;;;;13.34;100.00;102618.19;5270867;28;20025;-66
2023/05/25 07:58:30;;;;;;;11.30;5.70;;;;;;;13.33;100.00;102621.84;5273120;28;20029;-66
2023/05/25 08:01:02;;;;;;;10.50;5.18;;;;;;;13.33;100.00;102618.31;5268244;28;21479;-66
2023/05/25 08:03:33;;;;;;;11.95;5.18;;;;;;;13.43;100.00;102624.81;5269776;28;20114;-66
2023/05/25 08:06:05;;;;;;;11.13;5.40;;;;;;;13.49;100.00;102616.41;5271312;28;20086;-66
2023/05/25 08:08:37;;;;;;;10.93;6.18;;;;;;;13.54;100.00;102613.47;5270126;28;20053;-66
2023/05/25 08:11:08;;;;;;;14.25;5.72;;;;;;;13.66;100.00;102609.16;5272077;28;20028;-67
2023/05/25 08:13:39;;;;;;;12.90;5.75;;;;;;;13.75;100.00;102615.75;5271139;28;20020;-66
2023/05/25 08:16:11;;;;;;;13.55;5.85;;;;;;;13.80;100.00;102616.34;5265789;28;20032;-66
2023/05/25 08:18:45;;;;;;;12.98;5.55;;;;;;;13.97;100.00;102618.00;5269901;28;20028;-66
2023/05/25 08:21:16;;;;;;;10.57;6.00;;;;;;;14.11;100.00;102618.84;5270170;28;20497;-66
2023/05/25 08:23:49;;;;;;;12.88;5.85;;;;;;;14.19;100.00;102629.09;5270148;28;20277;-67
2023/05/25 08:26:21;;;;;;;16.65;6.13;;;;;;;14.29;100.00;102616.81;5266476;28;20033;-66
2023/05/25 08:28:53;;;;;;;13.73;5.57;;;;;;;14.51;100.00;102621.66;5272898;28;20478;-66
2023/05/25 08:31:24;;;;;;;9.18;5.10;;;;;;;14.56;100.00;102617.81;5267124;28;20098;-66
2023/05/25 08:33:55;;;;;;;9.35;4.38;;;;;;;14.61;100.00;102616.59;5269460;28;20028;-65
2023/05/25 08:36:27;;;;;;;11.88;4.97;;;;;;;14.66;100.00;102622.50;5272526;28;20036;-66
2023/05/25 08:38:58;;;;;;;15.10;4.45;;;;;;;14.66;100.00;102627.88;5268572;28;20072;-66
2023/05/25 08:41:31;;;;;;;9.82;4.60;;;;;;;14.61;100.00;102631.84;5272787;28;20036;-67
2023/05/25 08:44:05;;;;;;;15.27;5.45;;;;;;;14.68;100.00;102631.34;5270427;28;20033;-66
2023/05/25 08:46:36;;;;;;;10.38;4.25;;;;;;;14.79;100.00;102627.09;5270614;28;20457;-66
2023/05/25 08:49:10;;;;;;;11.77;4.60;;;;;;;14.77;100.00;102631.72;5270456;28;20042;-66
2023/05/25 08:51:48;;;;;;;11.55;4.30;;;;;;;15.01;100.00;102631.91;5269501;28;20020;-66
2023/05/25 08:54:33;;;;;;;9.18;4.05;;;;;;;15.22;100.00;102630.44;5267230;28;20817;-66
2023/05/25 08:57:11;;;;;;;11.07;4.43;;;;;;;15.31;100.00;102631.66;5270340;28;20157;-66
2023/05/25 08:59:49;;;;;;;9.80;4.00;;;;;;;15.32;100.00;102637.91;5267503;28;20039;-66
2023/05/25 09:02:39;;;;;;;9.80;4.05;;;;;;;15.23;100.00;102637.56;5267332;28;20067;-66
2023/05/25 09:05:12;;;;;;;10.13;4.63;;;;;;;15.24;100.00;102643.78;5265601;28;20131;-66
2023/05/25 09:07:45;;;;;;;10.60;3.97;;;;;;;15.24;100.00;102641.09;5267517;28;20029;-66
2023/05/25 09:10:16;;;;;;;12.32;4.22;;;;;;;15.32;100.00;102641.44;5270101;28;20056;-66
2023/05/25 09:12:50;;;;;;;16.58;4.53;;;;;;;15.26;100.00;102644.53;5269132;28;20468;-66
2023/05/25 09:15:21;;;;;;;10.52;4.20;;;;;;;15.22;100.00;102643.03;5270522;28;20021;-66
2023/05/25 09:17:53;;;;;;;12.00;4.60;;;;;;;15.32;100.00;102649.50;5269736;28;20041;-66
2023/05/25 09:20:30;;;;;;;13.80;4.07;;;;;;;15.39;100.00;102645.44;5267774;28;21243;-67
2023/05/25 09:23:02;;;;;;;13.07;4.50;;;;;;;15.31;100.00;102645.09;5266863;28;20111;-66
2023/05/25 09:25:34;;;;;;;14.48;4.38;;;;;;;15.38;100.00;102637.47;5270473;28;20479;-66
2023/05/25 09:28:08;;;;;;;10.73;4.03;;;;;;;15.41;100.00;102643.50;5265824;28;20125;-67
2023/05/25 09:30:40;;;;;;;11.02;4.20;;;;;;;15.38;100.00;102638.34;5274716;28;20105;-67
2023/05/25 09:33:12;;;;;;;9.77;3.80;;;;;;;15.32;100.00;102643.28;5269719;28;20565;-67
2023/05/25 09:35:45;;;;;;;13.05;4.15;;;;;;;15.28;100.00;102640.81;5269872;28;20082;-66
2023/05/25 09:38:16;;;;;;;10.65;3.85;;;;;;;15.29;100.00;102650.59;5273024;28;20044;-66
2023/05/25 09:40:48;;;;;;;9.55;3.70;;;;;;;15.29;100.00;102650.59;5271853;28;20032;-66
2023/05/25 09:43:20;;;;;;;10.15;3.97;;;;;;;15.37;100.00;102652.75;5274912;28;20037;-67
2023/05/25 09:45:51;;;;;;;10.90;4.03;;;;;;;15.39;100.00;102648.13;5272259;28;20029;-66
2023/05/25 09:48:23;;;;;;;14.75;4.40;;;;;;;15.43;100.00;102652.31;5271370;28;20538;-66
2023/05/25 09:50:55;;;;;;;11.82;3.78;;;;;;;15.51;100.00;102648.25;5271805;28;20039;-66
2023/05/25 09:53:26;;;;;;;10.57;3.50;;;;;;;15.54;100.00;102648.91;5270060;28;20066;-66
2023/05/25 09:55:59;;;;;;;10.00;3.70;;;;;;;15.53;100.00;102649.00;5271927;28;20088;-66
2023/05/25 09:58:30;;;;;;;10.18;3.53;;;;;;;15.50;100.00;102652.78;5270380;28;20028;-66
2023/05/25 10:01:03;;;;;;;9.50;3.13;;;;;;;15.55;100.00;102660.53;5268143;28;20094;-66
2023/05/25 10:03:34;;;;;;;8.88;3.38;;;;;;;15.67;100.00;102662.41;5272952;28;20024;-66
2023/05/25 10:06:06;;;;;;;9.50;3.30;;;;;;;15.57;100.00;102655.91;5270102;28;20455;-66
2023/05/25 10:08:38;;;;;;;13.32;4.15;;;;;;;15.63;100.00;102656.34;5268217;28;20096;-66
2023/05/25 10:11:13;;;;;;;9.15;3.47;;;;;;;15.67;100.00;102668.63;5272105;28;20469;-66
2023/05/25 10:13:45;;;;;;;9.93;3.88;;;;;;;15.61;100.00;102660.09;5268566;28;20051;-66
2023/05/25 10:16:17;;;;;;;11.50;3.85;;;;;;;15.64;100.00;102660.75;5267923;28;20069;-66
2023/05/25 10:19:04;;;;;;;11.02;3.85;;;;;;;15.78;100.00;102661.66;5271240;28;20028;-66
2023/05/25 10:21:38;;;;;;;12.30;3.95;;;;;;;15.76;100.00;102669.88;5265610;28;20020;-67
2023/05/25 10:24:17;;;;;;;9.93;4.50;;;;;;;15.82;100.00;102661.34;5273300;28;20470;-66
2023/05/25 10:26:53;;;;;;;9.88;3.70;;;;;;;15.91;100.00;102664.38;5270338;28;20035;-66
2023/05/25 10:29:26;;;;;;;11.82;3.80;;;;;;;15.94;100.00;102665.00;5268876;28;20024;-66
2023/05/25 10:31:59;;;;;;;11.60;4.00;;;;;;;16.00;100.00;102661.03;5272978;28;20111;-66
2023/05/25 10:34:31;;;;;;;10.57;3.50;;;;;;;16.09;100.00;102660.38;5271456;28;20056;-66
2023/05/25 10:37:03;;;;;;;11.82;3.65;;;;;;;16.22;100.00;102663.03;5265898;28;20157;-66
2023/05/25 10:39:35;;;;;;;12.57;3.97;;;;;;;16.28;100.00;102668.00;5270612;28;20032;-66
2023/05/25 10:42:07;;;;;;;10.30;3.58;;;;;;;16.20;100.00;102668.56;5269953;28;20028;-66
2023/05/25 10:44:41;;;;;;;11.52;3.83;;;;;;;16.18;100.00;102665.09;5272373;28;20052;-65
2023/05/25 10:47:14;;;;;;;7.60;3.47;;;;;;;16.24;100.00;102667.38;5273873;28;20028;-66
2023/05/25 10:49:57;;;;;;;8.25;3.10;;;;;;;16.30;100.00;102663.38;5269527;28;20283;-67
2023/05/25 10:52:31;;;;;;;7.95;2.97;;;;;;;16.32;100.00;102668.63;5267028;28;20033;-67
2023/05/25 10:55:05;;;;;;;13.80;3.63;;;;;;;16.43;100.00;102664.22;5266131;28;20024;-67
2023/05/25 10:57:37;;;;;;;15.23;3.90;;;;;;;16.56;100.00;102653.38;5266830;28;20173;-66
2023/05/25 11:00:12;;;;;;;10.63;3.58;;;;;;;16.65;100.00;102663.50;5272452;28;20029;-66
2023/05/25 11:02:50;;;;;;;7.82;3.33;;;;;;;16.76;100.00;102665.41;5271525;28;20032;-66
2023/05/25 11:05:37;;;;;;;10.88;3.72;;;;;;;16.83;100.00;102665.84;5270812;28;20135;-67
2023/05/25 11:08:11;;;;;;;9.07;3.30;;;;;;;16.78;100.00;102666.16;5269832;28;20479;-66
2023/05/25 11:10:48;;;;;;;;;;;;;;;16.93;100.00;102658.81;5267339;28;20756;-66
2023/05/25 11:13:36;;;;;;;10.68;3.30;;;;;;;16.66;100.00;102654.44;5268829;28;20362;-66
2023/05/25 11:16:20;;;;;;;7.68;3.45;;;;;;;16.85;100.00;102651.25;5272283;28;20052;-66
2023/05/25 11:18:57;;;;;;;10.98;3.60;;;;;;;17.10;100.00;102651.25;5270812;28;20043;-65
2023/05/25 11:21:29;;;;;;;8.38;3.53;;;;;;;17.35;100.00;102643.00;5271038;28;20102;-66
2023/05/25 11:24:05;;;;;;;9.85;3.80;;;;;;;17.39;100.00;102647.22;5271260;28;20024;-66
2023/05/25 11:26:50;;;;;;;9.85;3.60;;;;;;;17.38;100.00;102650.88;5261849;28;20025;-67
2023/05/25 11:29:24;;;;;;;9.45;3.50;;;;;;;17.36;100.00;102649.28;5267698;28;20047;-66
2023/05/25 11:31:55;;;;;;;10.32;3.88;;;;;;;17.33;100.00;102650.38;5266709;28;20055;-66
2023/05/25 11:34:28;;;;;;;8.45;3.53;;;;;;;17.34;100.00;102644.00;5267440;28;20103;-66
2023/05/25 11:37:03;;;;;;;10.43;3.90;;;;;;;17.29;100.00;102645.34;5269090;28;20018;-66
2023/05/25 11:39:34;;;;;;;12.18;3.90;;;;;;;17.27;100.00;102631.97;5266425;28;20067;-66